sensor_id;sensor_type;location;lat;lon;timestamp;P1;durP1;ratioP1;P2;durP2;ratioP2
57241;SDS011;43095;53.302;5.786;2023-02-11T00:02:01;40.58;;;10.05;;
57241;SDS011;43095;53.302;5.786;2023-02-11T00:04:30;43.90;;;10.70;;
57241;SDS011;43095;53.302;5.786;2023-02-11T00:06:58;38.35;;;10.20;;
57241;SDS011;43095;53.302;5.786;2023-02-11T00:09:32;42.92;;;12.23;;
57241;SDS011;43095;53.302;5.786;2023-02-11T00:12:04;44.35;;;10.88;;
57241;SDS011;43095;53.302;5.786;2023-02-11T00:14:41;45.55;;;12.25;;
57241;SDS011;43095;53.302;5.786;2023-02-11T00:17:09;39.58;;;10.77;;
57241;SDS011;43095;53.302;5.786;2023-02-11T00:19:36;39.78;;;12.57;;
57241;SDS011;43095;53.302;5.786;2023-02-11T00:22:05;36.13;;;10.95;;
57241;SDS011;43095;53.302;5.786;2023-02-11T00:24:34;46.05;;;11.38;;
57241;SDS011;43095;53.302;5.786;2023-02-11T00:27:02;41.30;;;11.75;;
57241;SDS011;43095;53.302;5.786;2023-02-11T00:29:29;46.63;;;12.15;;
57241;SDS011;43095;53.302;5.786;2023-02-11T00:31:57;40.53;;;11.88;;
57241;SDS011;43095;53.302;5.786;2023-02-11T00:34:44;45.70;;;13.68;;
57241;SDS011;43095;53.302;5.786;2023-02-11T00:37:16;42.08;;;13.02;;
57241;SDS011;43095;53.302;5.786;2023-02-11T00:39:49;42.60;;;13.55;;
57241;SDS011;43095;53.302;5.786;2023-02-11T00:42:16;39.80;;;13.77;;
57241;SDS011;43095;53.302;5.786;2023-02-11T00:44:49;47.88;;;13.30;;
57241;SDS011;43095;53.302;5.786;2023-02-11T00:47:20;42.25;;;15.00;;
57241;SDS011;43095;53.302;5.786;2023-02-11T00:49:48;45.20;;;14.90;;
57241;SDS011;43095;53.302;5.786;2023-02-11T00:52:18;45.72;;;15.05;;
57241;SDS011;43095;53.302;5.786;2023-02-11T00:54:46;39.95;;;13.95;;
57241;SDS011;43095;53.302;5.786;2023-02-11T00:57:36;49.80;;;14.43;;
57241;SDS011;43095;53.302;5.786;2023-02-11T01:00:10;49.65;;;15.45;;
57241;SDS011;43095;53.302;5.786;2023-02-11T01:02:41;35.17;;;14.20;;
57241;SDS011;43095;53.302;5.786;2023-02-11T01:05:09;41.67;;;14.52;;
57241;SDS011;43095;53.302;5.786;2023-02-11T01:07:40;49.70;;;15.48;;
57241;SDS011;43095;53.302;5.786;2023-02-11T01:10:11;42.22;;;14.38;;
57241;SDS011;43095;53.302;5.786;2023-02-11T01:12:39;43.80;;;14.75;;
57241;SDS011;43095;53.302;5.786;2023-02-11T01:15:17;41.40;;;14.45;;
57241;SDS011;43095;53.302;5.786;2023-02-11T01:17:49;40.30;;;15.20;;
57241;SDS011;43095;53.302;5.786;2023-02-11T01:20:22;50.83;;;18.07;;
57241;SDS011;43095;53.302;5.786;2023-02-11T01:22:50;58.50;;;15.32;;
57241;SDS011;43095;53.302;5.786;2023-02-11T01:25:18;47.08;;;16.10;;
57241;SDS011;43095;53.302;5.786;2023-02-11T01:27:47;45.63;;;15.57;;
57241;SDS011;43095;53.302;5.786;2023-02-11T01:30:15;46.85;;;14.60;;
57241;SDS011;43095;53.302;5.786;2023-02-11T01:32:44;40.22;;;17.23;;
57241;SDS011;43095;53.302;5.786;2023-02-11T01:35:12;52.85;;;18.77;;
57241;SDS011;43095;53.302;5.786;2023-02-11T01:37:40;45.25;;;16.73;;
57241;SDS011;43095;53.302;5.786;2023-02-11T01:40:11;40.55;;;16.27;;
57241;SDS011;43095;53.302;5.786;2023-02-11T01:42:43;47.67;;;18.02;;
57241;SDS011;43095;53.302;5.786;2023-02-11T01:47:57;44.22;;;17.08;;
57241;SDS011;43095;53.302;5.786;2023-02-11T01:50:28;43.53;;;16.73;;
57241;SDS011;43095;53.302;5.786;2023-02-11T01:52:55;52.85;;;19.23;;
57241;SDS011;43095;53.302;5.786;2023-02-11T01:55:44;41.85;;;16.13;;
57241;SDS011;43095;53.302;5.786;2023-02-11T01:58:31;42.17;;;17.30;;
57241;SDS011;43095;53.302;5.786;2023-02-11T02:00:59;47.00;;;16.63;;
57241;SDS011;43095;53.302;5.786;2023-02-11T02:42:21;49.58;;;20.38;;
57241;SDS011;43095;53.302;5.786;2023-02-11T02:45:54;38.28;;;19.15;;
57241;SDS011;43095;53.302;5.786;2023-02-11T02:48:50;41.35;;;18.85;;
57241;SDS011;43095;53.302;5.786;2023-02-11T02:52:34;43.80;;;21.35;;
57241;SDS011;43095;53.302;5.786;2023-02-11T03:22:10;53.25;;;22.90;;
57241;SDS011;43095;53.302;5.786;2023-02-11T03:25:24;41.15;;;19.80;;
57241;SDS011;43095;53.302;5.786;2023-02-11T03:35:34;43.45;;;21.17;;
57241;SDS011;43095;53.302;5.786;2023-02-11T03:42:15;51.70;;;23.40;;
57241;SDS011;43095;53.302;5.786;2023-02-11T04:03:05;44.50;;;21.95;;
57241;SDS011;43095;53.302;5.786;2023-02-11T04:06:10;45.05;;;21.55;;
57241;SDS011;43095;53.302;5.786;2023-02-11T04:09:49;43.33;;;22.25;;
57241;SDS011;43095;53.302;5.786;2023-02-11T04:13:39;46.05;;;21.73;;
57241;SDS011;43095;53.302;5.786;2023-02-11T04:17:15;48.63;;;21.15;;
57241;SDS011;43095;53.302;5.786;2023-02-11T04:24:30;49.25;;;19.52;;
57241;SDS011;43095;53.302;5.786;2023-02-11T04:42:29;40.83;;;19.88;;
57241;SDS011;43095;53.302;5.786;2023-02-11T04:45:37;43.65;;;19.30;;
57241;SDS011;43095;53.302;5.786;2023-02-11T04:49:36;45.75;;;20.90;;
57241;SDS011;43095;53.302;5.786;2023-02-11T05:01:38;44.42;;;20.20;;
57241;SDS011;43095;53.302;5.786;2023-02-11T05:05:48;44.13;;;19.60;;
57241;SDS011;43095;53.302;5.786;2023-02-11T05:12:43;43.28;;;20.48;;
57241;SDS011;43095;53.302;5.786;2023-02-11T05:24:06;42.28;;;19.70;;
57241;SDS011;43095;53.302;5.786;2023-02-11T05:27:23;50.72;;;22.35;;
57241;SDS011;43095;53.302;5.786;2023-02-11T05:39:12;49.17;;;21.77;;
57241;SDS011;43095;53.302;5.786;2023-02-11T05:46:08;43.15;;;22.73;;
57241;SDS011;43095;53.302;5.786;2023-02-11T06:00:44;49.58;;;23.88;;
57241;SDS011;43095;53.302;5.786;2023-02-11T06:15:10;53.00;;;23.52;;
57241;SDS011;43095;53.302;5.786;2023-02-11T06:17:42;52.17;;;23.88;;
57241;SDS011;43095;53.302;5.786;2023-02-11T06:20:22;48.30;;;21.95;;
57241;SDS011;43095;53.302;5.786;2023-02-11T06:27:48;44.20;;;21.20;;
57241;SDS011;43095;53.302;5.786;2023-02-11T06:30:16;48.00;;;22.63;;
57241;SDS011;43095;53.302;5.786;2023-02-11T06:32:43;52.15;;;22.02;;
57241;SDS011;43095;53.302;5.786;2023-02-11T06:35:12;49.30;;;22.00;;
57241;SDS011;43095;53.302;5.786;2023-02-11T06:37:40;59.45;;;23.63;;
57241;SDS011;43095;53.302;5.786;2023-02-11T06:40:08;55.00;;;23.40;;
57241;SDS011;43095;53.302;5.786;2023-02-11T06:42:36;50.03;;;23.10;;
57241;SDS011;43095;53.302;5.786;2023-02-11T06:45:05;45.45;;;21.85;;
57241;SDS011;43095;53.302;5.786;2023-02-11T06:47:34;56.53;;;23.10;;
57241;SDS011;43095;53.302;5.786;2023-02-11T06:50:02;55.67;;;21.30;;
57241;SDS011;43095;53.302;5.786;2023-02-11T06:52:29;44.42;;;22.45;;
57241;SDS011;43095;53.302;5.786;2023-02-11T06:54:56;62.97;;;23.85;;
57241;SDS011;43095;53.302;5.786;2023-02-11T06:57:24;55.90;;;22.40;;
57241;SDS011;43095;53.302;5.786;2023-02-11T06:59:51;55.45;;;21.38;;
57241;SDS011;43095;53.302;5.786;2023-02-11T07:02:21;50.30;;;22.63;;
57241;SDS011;43095;53.302;5.786;2023-02-11T07:04:49;55.72;;;23.25;;
57241;SDS011;43095;53.302;5.786;2023-02-11T07:07:19;61.65;;;22.83;;
57241;SDS011;43095;53.302;5.786;2023-02-11T07:09:46;52.50;;;22.95;;
57241;SDS011;43095;53.302;5.786;2023-02-11T07:12:14;51.88;;;22.58;;
57241;SDS011;43095;53.302;5.786;2023-02-11T07:14:41;51.35;;;22.38;;
57241;SDS011;43095;53.302;5.786;2023-02-11T07:17:09;56.63;;;24.27;;
57241;SDS011;43095;53.302;5.786;2023-02-11T07:19:36;49.42;;;21.60;;
57241;SDS011;43095;53.302;5.786;2023-02-11T07:22:04;50.60;;;21.52;;
57241;SDS011;43095;53.302;5.786;2023-02-11T07:24:31;42.15;;;20.05;;
57241;SDS011;43095;53.302;5.786;2023-02-11T07:26:59;52.70;;;22.58;;
57241;SDS011;43095;53.302;5.786;2023-02-11T07:29:26;46.95;;;20.67;;
57241;SDS011;43095;53.302;5.786;2023-02-11T07:31:56;52.13;;;21.42;;
57241;SDS011;43095;53.302;5.786;2023-02-11T07:34:27;60.83;;;20.85;;
57241;SDS011;43095;53.302;5.786;2023-02-11T07:36:54;57.55;;;22.85;;
57241;SDS011;43095;53.302;5.786;2023-02-11T07:39:24;51.60;;;21.23;;
57241;SDS011;43095;53.302;5.786;2023-02-11T07:41:53;61.67;;;21.13;;
57241;SDS011;43095;53.302;5.786;2023-02-11T07:44:20;58.47;;;22.80;;
57241;SDS011;43095;53.302;5.786;2023-02-11T07:46:48;49.58;;;20.17;;
57241;SDS011;43095;53.302;5.786;2023-02-11T07:49:16;50.38;;;19.40;;
57241;SDS011;43095;53.302;5.786;2023-02-11T07:51:43;46.65;;;19.17;;
57241;SDS011;43095;53.302;5.786;2023-02-11T07:54:11;50.47;;;21.55;;
57241;SDS011;43095;53.302;5.786;2023-02-11T07:56:40;47.28;;;18.17;;
57241;SDS011;43095;53.302;5.786;2023-02-11T07:59:10;50.90;;;18.35;;
57241;SDS011;43095;53.302;5.786;2023-02-11T08:01:41;49.42;;;19.55;;
57241;SDS011;43095;53.302;5.786;2023-02-11T08:04:08;62.97;;;19.02;;
57241;SDS011;43095;53.302;5.786;2023-02-11T08:06:39;49.10;;;17.25;;
57241;SDS011;43095;53.302;5.786;2023-02-11T08:09:10;43.83;;;17.88;;
57241;SDS011;43095;53.302;5.786;2023-02-11T08:11:39;52.53;;;18.15;;
57241;SDS011;43095;53.302;5.786;2023-02-11T08:14:07;49.17;;;18.17;;
57241;SDS011;43095;53.302;5.786;2023-02-11T08:16:37;46.20;;;18.50;;
57241;SDS011;43095;53.302;5.786;2023-02-11T08:19:12;40.47;;;17.27;;
57241;SDS011;43095;53.302;5.786;2023-02-11T08:21:40;48.80;;;18.17;;
57241;SDS011;43095;53.302;5.786;2023-02-11T08:24:08;40.92;;;15.30;;
57241;SDS011;43095;53.302;5.786;2023-02-11T08:26:36;41.40;;;17.10;;
57241;SDS011;43095;53.302;5.786;2023-02-11T08:29:06;46.00;;;16.23;;
57241;SDS011;43095;53.302;5.786;2023-02-11T08:31:38;46.17;;;16.10;;
57241;SDS011;43095;53.302;5.786;2023-02-11T08:34:06;34.38;;;17.10;;
57241;SDS011;43095;53.302;5.786;2023-02-11T08:36:41;38.92;;;15.90;;
57241;SDS011;43095;53.302;5.786;2023-02-11T08:39:20;46.88;;;17.85;;
57241;SDS011;43095;53.302;5.786;2023-02-11T08:41:49;46.75;;;15.65;;
57241;SDS011;43095;53.302;5.786;2023-02-11T08:44:19;43.17;;;17.42;;
57241;SDS011;43095;53.302;5.786;2023-02-11T08:46:50;43.60;;;15.80;;
57241;SDS011;43095;53.302;5.786;2023-02-11T08:49:27;39.50;;;15.20;;
57241;SDS011;43095;53.302;5.786;2023-02-11T08:51:56;36.47;;;16.23;;
57241;SDS011;43095;53.302;5.786;2023-02-11T08:54:27;43.30;;;14.75;;
57241;SDS011;43095;53.302;5.786;2023-02-11T08:56:55;34.40;;;13.50;;
57241;SDS011;43095;53.302;5.786;2023-02-11T08:59:23;43.13;;;15.07;;
57241;SDS011;43095;53.302;5.786;2023-02-11T09:01:50;38.58;;;14.27;;
57241;SDS011;43095;53.302;5.786;2023-02-11T09:04:20;39.90;;;13.45;;
57241;SDS011;43095;53.302;5.786;2023-02-11T09:06:51;39.45;;;11.93;;
57241;SDS011;43095;53.302;5.786;2023-02-11T09:09:18;30.95;;;12.73;;
57241;SDS011;43095;53.302;5.786;2023-02-11T09:11:46;45.28;;;12.65;;
57241;SDS011;43095;53.302;5.786;2023-02-11T09:14:16;37.75;;;11.93;;
57241;SDS011;43095;53.302;5.786;2023-02-11T09:16:43;35.60;;;12.55;;
57241;SDS011;43095;53.302;5.786;2023-02-11T09:19:11;34.90;;;12.20;;
57241;SDS011;43095;53.302;5.786;2023-02-11T09:21:39;33.78;;;11.20;;
57241;SDS011;43095;53.302;5.786;2023-02-11T09:24:06;33.28;;;10.43;;
57241;SDS011;43095;53.302;5.786;2023-02-11T09:26:34;38.85;;;13.38;;
57241;SDS011;43095;53.302;5.786;2023-02-11T09:29:02;28.88;;;10.82;;
57241;SDS011;43095;53.302;5.786;2023-02-11T09:31:31;38.40;;;12.25;;
57241;SDS011;43095;53.302;5.786;2023-02-11T09:34:00;32.22;;;9.80;;
57241;SDS011;43095;53.302;5.786;2023-02-11T09:36:32;32.63;;;9.45;;
57241;SDS011;43095;53.302;5.786;2023-02-11T09:39:00;27.48;;;9.80;;
57241;SDS011;43095;53.302;5.786;2023-02-11T09:41:37;27.35;;;8.13;;
57241;SDS011;43095;53.302;5.786;2023-02-11T09:44:08;34.72;;;9.95;;
57241;SDS011;43095;53.302;5.786;2023-02-11T09:46:38;33.78;;;9.73;;
57241;SDS011;43095;53.302;5.786;2023-02-11T09:49:06;39.58;;;9.00;;
57241;SDS011;43095;53.302;5.786;2023-02-11T09:51:51;34.03;;;9.30;;
57241;SDS011;43095;53.302;5.786;2023-02-11T09:54:28;32.13;;;8.32;;
57241;SDS011;43095;53.302;5.786;2023-02-11T09:56:57;26.65;;;7.85;;
57241;SDS011;43095;53.302;5.786;2023-02-11T09:59:25;27.98;;;7.60;;
57241;SDS011;43095;53.302;5.786;2023-02-11T10:01:54;24.77;;;7.43;;
57241;SDS011;43095;53.302;5.786;2023-02-11T10:06:55;25.30;;;7.32;;
57241;SDS011;43095;53.302;5.786;2023-02-11T10:09:32;23.17;;;7.10;;
57241;SDS011;43095;53.302;5.786;2023-02-11T10:22:28;26.92;;;6.82;;
57241;SDS011;43095;53.302;5.786;2023-02-11T10:24:57;24.00;;;6.10;;
57241;SDS011;43095;53.302;5.786;2023-02-11T10:27:27;30.75;;;6.50;;
57241;SDS011;43095;53.302;5.786;2023-02-11T10:32:51;23.85;;;5.85;;
57241;SDS011;43095;53.302;5.786;2023-02-11T10:35:24;26.65;;;6.00;;
57241;SDS011;43095;53.302;5.786;2023-02-11T10:37:53;29.40;;;6.72;;
57241;SDS011;43095;53.302;5.786;2023-02-11T10:40:28;20.85;;;5.22;;
57241;SDS011;43095;53.302;5.786;2023-02-11T10:42:57;24.73;;;6.07;;
57241;SDS011;43095;53.302;5.786;2023-02-11T10:47:54;19.50;;;4.93;;
57241;SDS011;43095;53.302;5.786;2023-02-11T10:52:55;21.65;;;5.68;;
57241;SDS011;43095;53.302;5.786;2023-02-11T10:55:37;22.00;;;5.10;;
57241;SDS011;43095;53.302;5.786;2023-02-11T10:58:04;31.63;;;6.72;;
57241;SDS011;43095;53.302;5.786;2023-02-11T11:00:35;26.63;;;5.05;;
57241;SDS011;43095;53.302;5.786;2023-02-11T11:03:15;27.52;;;6.70;;
57241;SDS011;43095;53.302;5.786;2023-02-11T11:05:48;21.33;;;4.68;;
57241;SDS011;43095;53.302;5.786;2023-02-11T11:08:16;24.17;;;5.40;;
57241;SDS011;43095;53.302;5.786;2023-02-11T11:10:49;20.95;;;4.75;;
57241;SDS011;43095;53.302;5.786;2023-02-11T11:13:52;17.65;;;4.57;;
57241;SDS011;43095;53.302;5.786;2023-02-11T11:16:33;18.23;;;4.15;;
57241;SDS011;43095;53.302;5.786;2023-02-11T11:21:46;22.20;;;4.78;;
57241;SDS011;43095;53.302;5.786;2023-02-11T11:26:45;20.92;;;4.07;;
57241;SDS011;43095;53.302;5.786;2023-02-11T11:29:15;20.30;;;4.35;;
57241;SDS011;43095;53.302;5.786;2023-02-11T11:31:50;19.98;;;4.25;;
57241;SDS011;43095;53.302;5.786;2023-02-11T11:34:27;19.10;;;3.40;;
57241;SDS011;43095;53.302;5.786;2023-02-11T11:36:56;14.30;;;3.28;;
57241;SDS011;43095;53.302;5.786;2023-02-11T11:39:31;27.65;;;4.38;;
57241;SDS011;43095;53.302;5.786;2023-02-11T11:47:14;20.30;;;3.75;;
57241;SDS011;43095;53.302;5.786;2023-02-11T11:57:34;17.13;;;3.10;;
57241;SDS011;43095;53.302;5.786;2023-02-11T12:00:03;27.92;;;3.95;;
57241;SDS011;43095;53.302;5.786;2023-02-11T12:02:39;23.85;;;4.75;;
57241;SDS011;43095;53.302;5.786;2023-02-11T12:05:13;24.50;;;3.92;;
57241;SDS011;43095;53.302;5.786;2023-02-11T12:15:38;19.00;;;3.65;;
57241;SDS011;43095;53.302;5.786;2023-02-11T12:23:37;23.45;;;4.47;;
57241;SDS011;43095;53.302;5.786;2023-02-11T12:26:11;18.45;;;4.68;;
57241;SDS011;43095;53.302;5.786;2023-02-11T12:31:28;18.73;;;3.78;;
57241;SDS011;43095;53.302;5.786;2023-02-11T12:34:03;18.50;;;3.25;;
57241;SDS011;43095;53.302;5.786;2023-02-11T12:39:25;16.52;;;3.05;;
57241;SDS011;43095;53.302;5.786;2023-02-11T12:45:08;23.73;;;3.85;;
57241;SDS011;43095;53.302;5.786;2023-02-11T12:50:30;21.08;;;3.60;;
57241;SDS011;43095;53.302;5.786;2023-02-11T12:55:50;25.58;;;4.07;;
57241;SDS011;43095;53.302;5.786;2023-02-11T12:58:21;26.25;;;3.65;;
57241;SDS011;43095;53.302;5.786;2023-02-11T13:01:19;19.45;;;3.15;;
57241;SDS011;43095;53.302;5.786;2023-02-11T13:03:53;21.65;;;3.13;;
57241;SDS011;43095;53.302;5.786;2023-02-11T13:06:24;24.45;;;3.45;;
57241;SDS011;43095;53.302;5.786;2023-02-11T13:08:56;22.77;;;3.13;;
57241;SDS011;43095;53.302;5.786;2023-02-11T13:11:28;15.77;;;3.22;;
57241;SDS011;43095;53.302;5.786;2023-02-11T13:16:44;16.95;;;2.97;;
57241;SDS011;43095;53.302;5.786;2023-02-11T13:27:03;21.52;;;3.92;;
57241;SDS011;43095;53.302;5.786;2023-02-11T13:32:21;17.73;;;3.17;;
57241;SDS011;43095;53.302;5.786;2023-02-11T13:34:53;20.88;;;3.97;;
57241;SDS011;43095;53.302;5.786;2023-02-11T13:37:25;30.50;;;4.50;;
57241;SDS011;43095;53.302;5.786;2023-02-11T13:42:26;21.27;;;4.05;;
57241;SDS011;43095;53.302;5.786;2023-02-11T13:44:54;25.25;;;3.58;;
57241;SDS011;43095;53.302;5.786;2023-02-11T13:47:26;21.98;;;3.58;;
57241;SDS011;43095;53.302;5.786;2023-02-11T13:50:05;22.08;;;4.32;;
57241;SDS011;43095;53.302;5.786;2023-02-11T13:52:37;17.88;;;3.15;;
57241;SDS011;43095;53.302;5.786;2023-02-11T13:57:37;18.42;;;3.50;;
57241;SDS011;43095;53.302;5.786;2023-02-11T14:02:36;17.15;;;3.45;;
57241;SDS011;43095;53.302;5.786;2023-02-11T14:18:38;16.95;;;3.33;;
57241;SDS011;43095;53.302;5.786;2023-02-11T14:23:39;25.38;;;3.55;;
57241;SDS011;43095;53.302;5.786;2023-02-11T14:28:47;23.55;;;4.10;;
57241;SDS011;43095;53.302;5.786;2023-02-11T14:31:26;15.57;;;3.60;;
57241;SDS011;43095;53.302;5.786;2023-02-11T14:41:56;22.38;;;3.88;;
57241;SDS011;43095;53.302;5.786;2023-02-11T14:44:27;16.67;;;3.72;;
57241;SDS011;43095;53.302;5.786;2023-02-11T14:46:57;18.98;;;3.00;;
57241;SDS011;43095;53.302;5.786;2023-02-11T14:49:32;24.65;;;3.67;;
57241;SDS011;43095;53.302;5.786;2023-02-11T14:54:48;20.98;;;4.05;;
57241;SDS011;43095;53.302;5.786;2023-02-11T14:57:17;22.38;;;3.05;;
57241;SDS011;43095;53.302;5.786;2023-02-11T15:00:19;15.57;;;2.90;;
57241;SDS011;43095;53.302;5.786;2023-02-11T15:02:39;18.75;;;3.33;;
57241;SDS011;43095;53.302;5.786;2023-02-11T15:05:21;22.13;;;4.22;;
57241;SDS011;43095;53.302;5.786;2023-02-11T15:07:52;26.75;;;4.28;;
57241;SDS011;43095;53.302;5.786;2023-02-11T15:10:34;23.77;;;3.60;;
57241;SDS011;43095;53.302;5.786;2023-02-11T15:13:02;19.42;;;2.92;;
57241;SDS011;43095;53.302;5.786;2023-02-11T15:15:31;22.00;;;4.43;;
57241;SDS011;43095;53.302;5.786;2023-02-11T15:18:01;19.55;;;3.78;;
57241;SDS011;43095;53.302;5.786;2023-02-11T15:20:30;24.48;;;3.85;;
57241;SDS011;43095;53.302;5.786;2023-02-11T15:22:59;17.90;;;4.50;;
57241;SDS011;43095;53.302;5.786;2023-02-11T15:25:27;19.33;;;3.47;;
57241;SDS011;43095;53.302;5.786;2023-02-11T15:27:59;14.90;;;3.33;;
57241;SDS011;43095;53.302;5.786;2023-02-11T15:30:28;20.20;;;2.53;;
57241;SDS011;43095;53.302;5.786;2023-02-11T15:33:00;18.30;;;3.20;;
57241;SDS011;43095;53.302;5.786;2023-02-11T15:35:30;15.25;;;2.85;;
57241;SDS011;43095;53.302;5.786;2023-02-11T15:37:58;15.77;;;3.50;;
57241;SDS011;43095;53.302;5.786;2023-02-11T15:40:27;25.88;;;4.15;;
57241;SDS011;43095;53.302;5.786;2023-02-11T15:42:59;16.40;;;2.38;;
57241;SDS011;43095;53.302;5.786;2023-02-11T15:45:40;27.67;;;4.18;;
57241;SDS011;43095;53.302;5.786;2023-02-11T15:50:39;17.42;;;3.13;;
57241;SDS011;43095;53.302;5.786;2023-02-11T15:56:40;20.75;;;3.30;;
57241;SDS011;43095;53.302;5.786;2023-02-11T15:58:44;26.20;;;4.80;;
57241;SDS011;43095;53.302;5.786;2023-02-11T16:01:13;25.55;;;3.85;;
57241;SDS011;43095;53.302;5.786;2023-02-11T16:03:42;20.63;;;3.97;;
57241;SDS011;43095;53.302;5.786;2023-02-11T16:06:14;22.50;;;3.53;;
57241;SDS011;43095;53.302;5.786;2023-02-11T16:08:42;22.00;;;3.22;;
57241;SDS011;43095;53.302;5.786;2023-02-11T16:11:23;27.50;;;3.85;;
57241;SDS011;43095;53.302;5.786;2023-02-11T16:13:51;24.27;;;4.38;;
57241;SDS011;43095;53.302;5.786;2023-02-11T16:16:25;20.00;;;3.40;;
57241;SDS011;43095;53.302;5.786;2023-02-11T16:18:54;22.45;;;3.10;;
57241;SDS011;43095;53.302;5.786;2023-02-11T16:21:32;24.98;;;4.43;;
57241;SDS011;43095;53.302;5.786;2023-02-11T16:24:05;29.25;;;4.15;;
57241;SDS011;43095;53.302;5.786;2023-02-11T16:26:35;18.48;;;3.47;;
57241;SDS011;43095;53.302;5.786;2023-02-11T16:29:06;26.90;;;5.00;;
57241;SDS011;43095;53.302;5.786;2023-02-11T16:31:35;19.52;;;3.33;;
57241;SDS011;43095;53.302;5.786;2023-02-11T16:34:13;21.38;;;3.00;;
57241;SDS011;43095;53.302;5.786;2023-02-11T16:36:41;24.50;;;3.95;;
57241;SDS011;43095;53.302;5.786;2023-02-11T16:39:09;17.48;;;3.40;;
57241;SDS011;43095;53.302;5.786;2023-02-11T16:41:37;28.10;;;5.22;;
57241;SDS011;43095;53.302;5.786;2023-02-11T16:44:05;21.60;;;3.90;;
57241;SDS011;43095;53.302;5.786;2023-02-11T16:46:32;24.90;;;4.43;;
57241;SDS011;43095;53.302;5.786;2023-02-11T16:49:06;35.72;;;5.38;;
57241;SDS011;43095;53.302;5.786;2023-02-11T16:51:37;28.83;;;4.40;;
57241;SDS011;43095;53.302;5.786;2023-02-11T16:54:05;17.55;;;3.17;;
57241;SDS011;43095;53.302;5.786;2023-02-11T16:56:32;16.65;;;3.67;;
57241;SDS011;43095;53.302;5.786;2023-02-11T16:59:00;16.60;;;3.70;;
57241;SDS011;43095;53.302;5.786;2023-02-11T17:01:28;21.48;;;2.75;;
57241;SDS011;43095;53.302;5.786;2023-02-11T17:03:56;24.80;;;3.67;;
57241;SDS011;43095;53.302;5.786;2023-02-11T17:06:23;25.05;;;3.80;;
57241;SDS011;43095;53.302;5.786;2023-02-11T17:08:51;24.35;;;3.75;;
57241;SDS011;43095;53.302;5.786;2023-02-11T17:11:19;23.45;;;4.40;;
57241;SDS011;43095;53.302;5.786;2023-02-11T17:13:46;22.17;;;4.30;;
57241;SDS011;43095;53.302;5.786;2023-02-11T17:16:18;21.38;;;4.82;;
57241;SDS011;43095;53.302;5.786;2023-02-11T17:18:46;23.13;;;4.57;;
57241;SDS011;43095;53.302;5.786;2023-02-11T17:21:14;22.40;;;4.00;;
57241;SDS011;43095;53.302;5.786;2023-02-11T17:23:42;24.13;;;4.25;;
57241;SDS011;43095;53.302;5.786;2023-02-11T17:26:11;19.88;;;3.55;;
57241;SDS011;43095;53.302;5.786;2023-02-11T17:28:39;26.90;;;4.78;;
57241;SDS011;43095;53.302;5.786;2023-02-11T17:31:07;25.00;;;4.65;;
57241;SDS011;43095;53.302;5.786;2023-02-11T17:33:35;19.70;;;6.30;;
57241;SDS011;43095;53.302;5.786;2023-02-11T17:36:04;18.15;;;3.83;;
57241;SDS011;43095;53.302;5.786;2023-02-11T17:38:32;18.27;;;4.53;;
57241;SDS011;43095;53.302;5.786;2023-02-11T17:41:01;32.38;;;5.53;;
57241;SDS011;43095;53.302;5.786;2023-02-11T17:43:29;23.02;;;5.32;;
57241;SDS011;43095;53.302;5.786;2023-02-11T17:45:56;22.90;;;4.47;;
57241;SDS011;43095;53.302;5.786;2023-02-11T17:48:24;25.30;;;4.38;;
57241;SDS011;43095;53.302;5.786;2023-02-11T17:50:54;26.27;;;5.53;;
57241;SDS011;43095;53.302;5.786;2023-02-11T17:53:23;19.40;;;4.75;;
57241;SDS011;43095;53.302;5.786;2023-02-11T17:55:50;29.65;;;5.68;;
57241;SDS011;43095;53.302;5.786;2023-02-11T17:58:18;26.73;;;5.28;;
57241;SDS011;43095;53.302;5.786;2023-02-11T18:00:46;25.92;;;6.18;;
57241;SDS011;43095;53.302;5.786;2023-02-11T18:03:13;23.42;;;5.28;;
57241;SDS011;43095;53.302;5.786;2023-02-11T18:05:41;29.20;;;6.13;;
57241;SDS011;43095;53.302;5.786;2023-02-11T18:08:11;28.00;;;6.40;;
57241;SDS011;43095;53.302;5.786;2023-02-11T18:10:39;23.92;;;5.53;;
57241;SDS011;43095;53.302;5.786;2023-02-11T18:13:08;25.23;;;4.95;;
57241;SDS011;43095;53.302;5.786;2023-02-11T18:15:36;36.25;;;7.38;;
57241;SDS011;43095;53.302;5.786;2023-02-11T18:18:03;22.60;;;5.43;;
57241;SDS011;43095;53.302;5.786;2023-02-11T18:20:31;23.90;;;4.57;;
57241;SDS011;43095;53.302;5.786;2023-02-11T18:22:58;26.52;;;5.15;;
57241;SDS011;43095;53.302;5.786;2023-02-11T18:25:26;23.83;;;4.63;;
57241;SDS011;43095;53.302;5.786;2023-02-11T18:27:55;28.45;;;5.38;;
57241;SDS011;43095;53.302;5.786;2023-02-11T18:30:23;27.95;;;5.63;;
57241;SDS011;43095;53.302;5.786;2023-02-11T18:32:55;32.00;;;6.88;;
57241;SDS011;43095;53.302;5.786;2023-02-11T18:35:23;34.22;;;6.75;;
57241;SDS011;43095;53.302;5.786;2023-02-11T18:37:54;23.08;;;7.80;;
57241;SDS011;43095;53.302;5.786;2023-02-11T18:40:23;22.05;;;6.20;;
57241;SDS011;43095;53.302;5.786;2023-02-11T18:42:53;27.95;;;5.78;;
57241;SDS011;43095;53.302;5.786;2023-02-11T18:45:21;25.77;;;5.45;;
57241;SDS011;43095;53.302;5.786;2023-02-11T18:47:51;27.63;;;4.93;;
57241;SDS011;43095;53.302;5.786;2023-02-11T18:50:19;27.92;;;4.75;;
57241;SDS011;43095;53.302;5.786;2023-02-11T18:52:49;29.60;;;5.28;;
57241;SDS011;43095;53.302;5.786;2023-02-11T18:55:19;40.83;;;6.18;;
57241;SDS011;43095;53.302;5.786;2023-02-11T18:57:52;22.65;;;5.40;;
57241;SDS011;43095;53.302;5.786;2023-02-11T19:00:20;29.95;;;6.70;;
57241;SDS011;43095;53.302;5.786;2023-02-11T19:02:48;23.98;;;7.53;;
57241;SDS011;43095;53.302;5.786;2023-02-11T19:05:18;21.63;;;7.57;;
57241;SDS011;43095;53.302;5.786;2023-02-11T19:07:47;37.90;;;9.70;;
57241;SDS011;43095;53.302;5.786;2023-02-11T19:10:14;35.28;;;8.50;;
57241;SDS011;43095;53.302;5.786;2023-02-11T19:12:42;32.72;;;9.20;;
57241;SDS011;43095;53.302;5.786;2023-02-11T19:15:09;33.63;;;7.78;;
57241;SDS011;43095;53.302;5.786;2023-02-11T19:17:39;29.10;;;9.05;;
57241;SDS011;43095;53.302;5.786;2023-02-11T19:20:07;26.63;;;7.05;;
57241;SDS011;43095;53.302;5.786;2023-02-11T19:22:35;32.88;;;8.88;;
57241;SDS011;43095;53.302;5.786;2023-02-11T19:25:03;31.88;;;6.93;;
57241;SDS011;43095;53.302;5.786;2023-02-11T19:27:31;21.58;;;5.20;;
57241;SDS011;43095;53.302;5.786;2023-02-11T19:29:58;27.10;;;5.50;;
57241;SDS011;43095;53.302;5.786;2023-02-11T19:32:26;25.52;;;6.78;;
57241;SDS011;43095;53.302;5.786;2023-02-11T19:34:54;32.47;;;7.53;;
57241;SDS011;43095;53.302;5.786;2023-02-11T19:37:25;24.77;;;7.18;;
57241;SDS011;43095;53.302;5.786;2023-02-11T19:39:52;30.70;;;7.65;;
57241;SDS011;43095;53.302;5.786;2023-02-11T19:42:20;19.27;;;6.18;;
57241;SDS011;43095;53.302;5.786;2023-02-11T19:44:50;29.92;;;7.63;;
57241;SDS011;43095;53.302;5.786;2023-02-11T19:47:17;31.98;;;9.80;;
57241;SDS011;43095;53.302;5.786;2023-02-11T19:49:45;36.75;;;10.32;;
57241;SDS011;43095;53.302;5.786;2023-02-11T19:52:13;30.15;;;8.35;;
57241;SDS011;43095;53.302;5.786;2023-02-11T19:54:41;29.42;;;8.27;;
57241;SDS011;43095;53.302;5.786;2023-02-11T19:57:08;28.63;;;7.05;;
57241;SDS011;43095;53.302;5.786;2023-02-11T19:59:43;28.65;;;5.20;;
57241;SDS011;43095;53.302;5.786;2023-02-11T20:02:44;34.97;;;9.93;;
57241;SDS011;43095;53.302;5.786;2023-02-11T20:05:29;37.20;;;10.23;;
57241;SDS011;43095;53.302;5.786;2023-02-11T20:11:50;26.13;;;6.20;;